Time;durP1;ratioP1;P1;durP2;ratioP2;P2;SDS_P1;SDS_P2;PMS_P1;PMS_P2;Temp;Humidity;BMP_temperature;BMP_pressure;BME280_temperature;BME280_humidity;BME280_pressure;Samples;Min_cycle;Max_cycle;Signal;HPM_P1;HPM_P2
2022/07/12 00:01:57;;;;;;;;;0.00;0.00;;;;;21.67;48.68;98774.22;4914506;28;103681;-56
2022/07/12 00:04:24;;;;;;;;;0.00;0.00;;;;;21.63;48.86;98769.50;4910298;28;102124;-56
2022/07/12 00:06:52;;;;;;;;;0.00;0.00;;;;;;;;4909430;28;105558;-56
2022/07/12 00:09:19;;;;;;;;;0.00;0.00;;;;;21.64;48.98;98776.69;4910368;28;104021;-56
2022/07/12 00:11:46;;;;;;;;;0.00;0.00;;;;;21.64;48.75;98776.69;4910603;28;103389;-56
2022/07/12 00:14:13;;;;;;;;;0.00;0.00;;;;;;;;4914994;28;102324;-56
2022/07/12 00:16:40;;;;;;;;;0.00;0.00;;;;;;;;4917490;28;102115;-56
2022/07/12 00:19:08;;;;;;;;;0.00;0.00;;;;;21.62;48.87;98779.69;4917338;28;104043;-56
2022/07/12 00:21:35;;;;;;;;;0.00;0.00;;;;;21.66;48.91;98788.22;4917755;28;102344;-56
2022/07/12 00:24:03;;;;;;;;;0.00;0.00;;;;;21.62;48.63;98787.13;4918002;28;102129;-57
2022/07/12 00:26:30;;;;;;;;;0.00;0.00;;;;;21.64;48.60;98779.44;4918633;28;102184;-56
2022/07/12 00:28:57;;;;;;;;;0.00;0.00;;;;;21.67;49.08;98784.38;4916858;28;111046;-56
2022/07/12 00:31:25;;;;;;;;;0.00;0.00;;;;;21.61;48.48;98779.97;4937458;28;102273;-56
2022/07/12 00:33:52;;;;;;;;;0.00;0.00;;;;;21.61;48.63;98779.97;4914293;28;101987;-56
2022/07/12 00:36:20;;;;;;;;;0.00;0.00;;;;;21.61;48.55;98782.72;4915810;28;102723;-56
2022/07/12 00:38:47;;;;;;;;;0.00;0.00;;;;;21.61;48.91;98797.31;4915211;28;104321;-56
2022/07/12 00:41:14;;;;;;;;;1.00;0.00;;;;;21.60;48.88;98795.66;4913658;28;102164;-56
2022/07/12 00:43:42;;;;;;;;;0.00;0.00;;;;;21.61;48.58;98797.31;4910006;28;102242;-56
2022/07/12 00:46:09;;;;;;;;;0.00;0.00;;;;;21.61;48.78;98793.75;4912722;28;104008;-56
2022/07/12 00:48:36;;;;;;;;;0.00;0.00;;;;;21.61;48.52;98791.00;4908713;28;104347;-56
2022/07/12 00:51:03;;;;;;;;;0.00;0.00;;;;;21.61;48.86;98791.00;4914105;28;102240;-57
2022/07/12 00:53:30;;;;;;;;;0.00;0.00;;;;;21.61;48.67;98802.00;4915362;28;103177;-56
2022/07/12 00:56:00;;;;;;;;;0.00;0.00;;;;;21.62;48.54;98790.69;4912640;28;102335;-56
2022/07/12 00:58:27;;;;;;;;;0.00;0.00;;;;;21.63;48.65;98794.28;4905836;28;108985;-56
2022/07/12 01:00:57;;;;;;;;;0.00;0.00;;;;;21.62;48.49;98798.13;4914479;28;102672;-57
2022/07/12 01:03:25;;;;;;;;;0.00;0.00;;;;;21.62;48.98;98785.19;4905554;28;103786;-56
2022/07/12 01:05:52;;;;;;;;;0.00;0.00;;;;;21.61;48.66;98785.47;4905998;28;105866;-56
2022/07/12 01:08:19;;;;;;;;;0.00;0.00;;;;;21.58;48.39;98786.00;4909333;28;104053;-56
2022/07/12 01:10:47;;;;;;;;;0.00;0.00;;;;;21.58;49.02;98788.75;4907801;28;102359;-56
2022/07/12 01:13:14;;;;;;;;;0.00;0.00;;;;;21.58;48.96;98791.50;4932376;28;102456;-56
2022/07/12 01:15:42;;;;;;;;;0.00;0.00;;;;;21.57;49.10;98787.13;4911109;28;102559;-56
2022/07/12 01:18:09;;;;;;;;;0.00;0.00;;;;;21.57;49.03;98792.63;4910375;28;104055;-56
2022/07/12 01:20:37;;;;;;;;;0.00;0.00;;;;;21.59;48.45;98784.91;4890633;28;102606;-56
2022/07/12 01:23:04;;;;;;;;;0.00;0.00;;;;;21.56;48.52;98790.97;4911835;28;102217;-57
2022/07/12 01:25:31;;;;;;;;;0.00;0.00;;;;;21.53;48.82;98791.47;4913246;28;102458;-56
2022/07/12 01:27:58;;;;;;;;;0.00;0.00;;;;;21.54;48.54;98793.97;4914253;28;110733;-56
2022/07/12 01:30:26;;;;;;;;;0.00;0.00;;;;;21.53;48.62;98786.78;4911134;28;102709;-56
2022/07/12 01:32:53;;;;;;;;;0.33;0.00;;;;;21.53;48.61;98785.97;4912706;28;102367;-56
2022/07/12 01:35:21;;;;;;;;;0.00;0.00;;;;;21.54;48.54;98787.63;4927380;28;102657;-56
2022/07/12 01:37:48;;;;;;;;;0.00;0.00;;;;;21.54;49.00;98793.13;4907177;28;104362;-56
2022/07/12 01:40:16;;;;;;;;;0.00;0.00;;;;;21.54;48.66;98779.38;4926196;28;102493;-56
2022/07/12 01:42:46;;;;;;;;;0.00;0.00;;;;;21.53;48.50;98773.03;4907098;28;103641;-56
2022/07/12 01:45:14;;;;;;;;;0.00;0.00;;;;;21.55;48.84;98770.03;4909884;28;103105;-56
2022/07/12 01:47:41;;;;;;;;;0.00;0.00;;;;;21.54;48.80;98779.38;4914556;28;104153;-57
2022/07/12 01:50:09;;;;;;;;;0.00;0.00;;;;;21.54;49.14;98776.63;4912986;28;102450;-56
2022/07/12 01:52:38;;;;;;;;;0.00;0.00;;;;;21.54;48.41;98769.19;4931442;28;102304;-56
2022/07/12 01:55:06;;;;;;;;;0.00;0.00;;;;;21.53;48.72;98763.97;4914354;28;102291;-57
2022/07/12 01:57:34;;;;;;;;;0.00;0.00;;;;;21.53;48.78;98764.78;4911881;28;104268;-58
2022/07/12 02:00:04;;;;;;;;;0.00;0.00;;;;;21.52;48.38;98767.81;4919437;28;102817;-56
2022/07/12 02:02:32;;;;;;;;;0.00;0.00;;;;;21.54;48.38;98771.13;4913189;28;102160;-56
2022/07/12 02:05:02;;;;;;;;;0.00;0.00;;;;;21.55;48.75;98775.53;4913103;28;103265;-56
2022/07/12 02:07:29;;;;;;;;;0.00;0.00;;;;;21.55;48.29;98761.78;4909626;28;110247;-56
2022/07/12 02:09:56;;;;;;;;;0.00;0.00;;;;;21.54;48.30;98771.13;4912702;28;102192;-56
2022/07/12 02:12:23;;;;;;;;;0.00;0.00;;;;;21.51;48.37;98768.91;4911149;28;102247;-56
2022/07/12 02:14:50;;;;;;;;;0.00;0.00;;;;;21.52;48.85;98765.91;4907619;28;102597;-56
2022/07/12 02:17:17;;;;;;;;;0.00;0.00;;;;;21.52;48.49;98759.56;4908070;28;104203;-56
2022/07/12 02:19:45;;;;;;;;;0.00;0.00;;;;;21.52;48.87;98765.06;4914249;28;102180;-56
2022/07/12 02:22:12;;;;;;;;;0.00;0.00;;;;;21.52;48.72;98760.41;4911647;28;102211;-56
2022/07/12 02:24:39;;;;;;;;;0.00;0.00;;;;;21.53;48.78;98772.22;4920130;28;102197;-56
2022/07/12 02:27:06;;;;;;;;;0.00;0.00;;;;;21.50;48.59;98772.75;4913602;28;104092;-56
2022/07/12 02:29:35;;;;;;;;;0.00;0.00;;;;;21.51;48.80;98774.41;4912064;28;102224;-59
2022/07/12 02:32:02;;;;;;;;;0.00;0.00;;;;;21.50;48.23;98779.09;4914473;28;102196;-56
2022/07/12 02:34:30;;;;;;;;;0.00;0.00;;;;;21.50;48.90;98772.75;4915098;28;103839;-56
2022/07/12 02:36:57;;;;;;;;;0.00;0.00;;;;;21.50;48.48;98779.09;4914024;28;104077;-56
2022/07/12 02:39:24;;;;;;;;;0.00;0.00;;;;;21.51;48.59;98777.16;4913966;28;103207;-56
2022/07/12 02:41:51;;;;;;;;;0.00;0.00;;;;;21.48;48.90;98775.75;4916974;28;103806;-56
2022/07/12 02:44:18;;;;;;;;;0.00;0.00;;;;;21.49;48.75;98782.09;4914641;28;102829;-56
2022/07/12 02:46:46;;;;;;;;;0.00;0.00;;;;;21.49;48.84;98782.09;4918632;28;104238;-56
2022/07/12 02:49:13;;;;;;;;;0.00;0.00;;;;;21.49;48.59;98788.44;4917910;28;102146;-56
2022/07/12 02:51:40;;;;;;;;;0.00;0.00;;;;;21.48;48.66;98780.47;4921828;28;102216;-56
2022/07/12 02:54:07;;;;;;;;;0.33;0.00;;;;;21.49;48.39;98790.34;4917246;28;102578;-56
2022/07/12 02:56:34;;;;;;;;;0.33;0.00;;;;;21.48;48.59;98785.97;4919395;28;104042;-57
2022/07/12 02:59:01;;;;;;;;;0.00;0.00;;;;;21.48;48.39;98791.47;4921362;28;102233;-56
2022/07/12 03:01:28;;;;;;;;;0.00;0.00;;;;;21.47;48.84;98781.56;4918257;28;105475;-56
2022/07/12 03:03:56;;;;;;;;;0.00;0.00;;;;;21.46;48.33;98782.63;4921133;28;102347;-56
2022/07/12 03:06:23;;;;;;;;;0.00;0.00;;;;;21.48;48.48;98785.97;4916263;28;104014;-56
2022/07/12 03:08:50;;;;;;;;;0.00;0.00;;;;;21.47;48.77;98784.31;4919054;28;102186;-56
2022/07/12 03:11:17;;;;;;;;;0.00;0.00;;;;;21.49;48.69;98790.34;4919257;28;102018;-56
2022/07/12 03:13:44;;;;;;;;;0.00;0.00;;;;;21.48;48.72;98788.72;4922075;28;102606;-56
2022/07/12 03:16:11;;;;;;;;;0.00;0.00;;;;;21.49;48.92;98790.34;4919570;28;104089;-56
2022/07/12 03:18:39;;;;;;;;;0.00;0.00;;;;;21.48;48.52;98783.22;4914034;28;102596;-56
2022/07/12 03:21:07;;;;;;;;;0.00;0.00;;;;;21.49;48.83;98787.59;4919271;28;102306;-56
2022/07/12 03:23:34;;;;;;;;;0.00;0.00;;;;;21.49;48.65;98791.19;4920042;28;102533;-57
2022/07/12 03:26:02;;;;;;;;;0.00;0.00;;;;;21.49;48.74;98790.34;4923804;28;104221;-57
2022/07/12 03:28:29;;;;;;;;;0.00;0.00;;;;;21.47;48.89;98796.16;4919489;28;102128;-56
2022/07/12 03:30:56;;;;;;;;;0.00;0.00;;;;;21.46;48.65;98783.47;4919402;28;102013;-56
2022/07/12 03:33:23;;;;;;;;;0.00;0.00;;;;;21.45;48.23;98789.22;4917997;28;102192;-56
2022/07/12 03:35:59;;;;;;;;;0.00;0.00;;;;;21.47;48.32;98785.13;4916001;28;103346;-56
2022/07/12 03:38:26;;;;;;;;;1.00;0.00;;;;;21.45;48.27;98798.31;4913035;28;102475;-56
2022/07/12 03:40:53;;;;;;;;;0.00;0.00;;;;;21.45;48.86;98789.22;4914456;28;102624;-56
2022/07/12 03:43:20;;;;;;;;;0.00;0.00;;;;;21.44;48.76;98790.31;4917589;28;102488;-57
2022/07/12 03:45:47;;;;;;;;;0.00;0.00;;;;;21.45;48.45;98791.97;4917647;28;104227;-56
2022/07/12 03:48:14;;;;;;;;;0.00;0.00;;;;;21.45;48.61;98791.97;4913647;28;110044;-56
2022/07/12 03:50:41;;;;;;;;;0.00;0.00;;;;;21.43;48.86;98785.94;4936631;28;102889;-56
2022/07/12 03:53:08;;;;;;;;;0.00;0.00;;;;;21.45;48.28;98786.47;4915685;28;102557;-56
2022/07/12 03:55:35;;;;;;;;;0.00;0.00;;;;;21.44;48.41;98782.06;4916612;28;105397;-56
2022/07/12 03:58:02;;;;;;;;;0.00;0.00;;;;;21.44;48.79;98784.81;4920266;28;102524;-56
2022/07/12 04:00:30;;;;;;;;;0.00;0.00;;;;;21.45;48.30;98791.97;4909872;28;104069;-56
2022/07/12 04:02:57;;;;;;;;;1.00;0.00;;;;;21.44;48.35;98790.31;4915299;28;102133;-56
2022/07/12 04:05:26;;;;;;;;;0.00;0.00;;;;;21.43;48.24;98788.69;4912094;28;104253;-56
2022/07/12 04:07:53;;;;;;;;;0.00;0.00;;;;;21.44;48.51;98790.31;4913992;28;102094;-56
2022/07/12 04:10:21;;;;;;;;;0.00;0.00;;;;;21.45;48.66;98789.22;4916222;28;102123;-56
2022/07/12 04:12:48;;;;;;;;;0.00;0.00;;;;;21.42;48.39;98796.13;4914738;28;102601;-56
2022/07/12 04:15:15;;;;;;;;;0.00;0.00;;;;;21.44;48.78;98801.31;4918478;28;104077;-56
2022/07/12 04:17:42;;;;;;;;;0.00;0.00;;;;;21.45;48.80;98797.47;4912648;28;102469;-56
2022/07/12 04:20:13;;;;;;;;;0.00;0.00;;;;;21.44;48.30;98795.81;4917224;28;102195;-56
2022/07/12 04:22:40;;;;;;;;;0.00;0.00;;;;;21.47;48.27;98795.31;4915592;28;102835;-56
2022/07/12 04:25:08;;;;;;;;;0.00;0.00;;;;;21.45;48.62;98789.22;4912628;28;104055;-56
2022/07/12 04:27:35;;;;;;;;;0.00;0.00;;;;;21.46;48.15;98782.63;4910228;28;102290;-58
2022/07/12 04:30:02;;;;;;;;;0.00;0.00;;;;;21.45;48.44;98776.31;4917516;28;102500;-56
2022/07/12 04:32:30;;;;;;;;;0.00;0.00;;;;;21.45;48.27;98786.47;4915820;28;102608;-56
2022/07/12 04:34:57;;;;;;;;;0.00;0.00;;;;;21.45;48.28;98791.97;4909396;28;104055;-56
2022/07/12 04:37:24;;;;;;;;;0.00;0.00;;;;;21.43;48.12;98791.44;4914688;28;102035;-57
2022/07/12 04:39:51;;;;;;;;;0.00;0.00;;;;;21.44;48.12;98782.06;4914335;28;102518;-56
2022/07/12 04:42:18;;;;;;;;;1.00;0.00;;;;;21.43;47.94;98791.44;4912394;28;102718;-56
2022/07/12 04:44:45;;;;;;;;;0.00;0.00;;;;;21.44;47.86;98784.81;4911138;28;104045;-56
2022/07/12 04:47:12;;;;;;;;;0.00;0.00;;;;;21.45;48.20;98794.72;4909998;28;103026;-56
2022/07/12 04:49:40;;;;;;;;;0.00;0.00;;;;;21.44;48.32;98793.06;4912995;28;106049;-56
2022/07/12 04:52:10;;;;;;;;;0.00;0.00;;;;;21.43;48.20;98795.03;4913241;28;102174;-56
2022/07/12 04:54:38;;;;;;;;;0.00;0.00;;;;;21.42;48.30;98790.59;4907422;28;103098;-56
2022/07/12 04:57:05;;;;;;;;;0.00;0.00;;;;;21.44;48.38;98791.16;4902862;28;110694;-58
2022/07/12 04:59:32;;;;;;;;;0.00;0.00;;;;;21.44;48.76;98790.31;4913488;28;102145;-56
2022/07/12 05:01:59;;;;;;;;;0.00;0.00;;;;;21.47;48.42;98789.81;4907747;28;102177;-56
2022/07/12 05:04:26;;;;;;;;;0.00;0.00;;;;;21.45;48.18;98783.72;4915648;28;104075;-56
2022/07/12 05:06:53;;;;;;;;;0.00;0.00;;;;;21.45;48.35;98786.47;4919141;28;102492;-56
2022/07/12 05:09:20;;;;;;;;;0.00;0.00;;;;;21.43;48.30;98788.69;4912996;28;103296;-56
2022/07/12 05:11:47;;;;;;;;;0.00;0.00;;;;;21.45;48.52;98783.72;4914214;28;102137;-56
2022/07/12 05:14:14;;;;;;;;;0.00;0.00;;;;;21.43;48.00;98784.00;4919670;28;104068;-56
2022/07/12 05:16:41;;;;;;;;;0.00;0.00;;;;;21.45;48.16;98786.47;4917330;28;102334;-56
2022/07/12 05:19:09;;;;;;;;;0.00;0.00;;;;;21.45;48.55;98786.47;4916577;28;102088;-56
2022/07/12 05:21:36;;;;;;;;;0.00;0.00;;;;;21.44;48.30;98782.91;4916335;28;102340;-57
2022/07/12 05:24:03;;;;;;;;;0.00;0.00;;;;;21.44;48.27;98782.06;4910206;28;104178;-56
2022/07/12 05:26:30;;;;;;;;;0.00;0.00;;;;;21.46;48.16;98777.13;4924913;28;102008;-56
2022/07/12 05:28:58;;;;;;;;;0.00;0.00;;;;;21.45;48.43;98773.56;4913396;28;102176;-56
2022/07/12 05:31:25;;;;;;;;;0.00;0.00;;;;;21.46;48.18;98768.88;4914027;28;102419;-56
2022/07/12 05:33:52;;;;;;;;;0.00;0.00;;;;;21.47;48.57;98779.63;4907014;28;104179;-56
2022/07/12 05:36:20;;;;;;;;;0.00;0.00;;;;;21.47;48.43;98778.81;4912830;28;103229;-56
2022/07/12 05:38:47;;;;;;;;;0.00;0.00;;;;;21.49;48.21;98771.09;4911640;28;102200;-56
2022/07/12 05:41:14;;;;;;;;;0.00;0.00;;;;;21.48;48.39;98764.75;4916330;28;102318;-56
2022/07/12 05:43:41;;;;;;;;;0.00;0.00;;;;;21.49;48.01;98765.59;4914470;28;104041;-56
2022/07/12 05:46:09;;;;;;;;;0.00;0.00;;;;;21.49;47.81;98768.34;4910543;28;102247;-56
2022/07/12 05:48:39;;;;;;;;;0.00;0.00;;;;;21.49;47.92;98765.59;4916432;28;102462;-57
2022/07/12 05:53:52;;;;;;;;;0.00;0.00;;;;;21.49;47.88;98768.34;4916375;28;104077;-56
2022/07/12 05:56:19;;;;;;;;;0.00;0.00;;;;;21.46;48.30;98769.72;4912654;28;102310;-56
2022/07/12 05:58:46;;;;;;;;;0.67;0.00;;;;;21.47;48.09;98774.13;4915762;28;101986;-56
2022/07/12 06:01:13;;;;;;;;;1.00;0.00;;;;;21.48;48.17;98777.72;4914140;28;102228;-56
2022/07/12 06:03:40;;;;;;;;;0.00;0.00;;;;;21.47;48.46;98776.88;4905754;28;103989;-56
2022/07/12 06:06:07;;;;;;;;;0.00;0.00;;;;;21.48;48.16;98777.72;4910259;28;102209;-56
2022/07/12 06:08:34;;;;;;;;;0.00;0.00;;;;;21.48;48.05;98774.97;4918973;28;102467;-56
2022/07/12 06:11:01;;;;;;;;;0.00;0.00;;;;;21.47;48.07;98771.38;4914317;28;102141;-56
2022/07/12 06:13:28;;;;;;;;;1.00;0.00;;;;;21.47;48.34;98767.78;4913088;28;104079;-56
2022/07/12 06:15:55;;;;;;;;;0.00;0.00;;;;;21.46;47.83;98766.97;4910053;28;104956;-56
2022/07/12 06:18:22;;;;;;;;;0.00;0.00;;;;;21.48;48.13;98772.22;4914972;28;102498;-56
2022/07/12 06:20:50;;;;;;;;;0.00;0.00;;;;;21.49;48.14;98765.59;4914068;28;102267;-56
2022/07/12 06:23:17;;;;;;;;;0.00;0.00;;;;;21.48;48.24;98780.47;4912955;28;104182;-56
2022/07/12 06:25:45;;;;;;;;;0.00;0.00;;;;;21.48;47.82;98772.22;4908244;28;102208;-56
2022/07/12 06:28:21;;;;;;;;;0.00;0.00;;;;;21.48;47.83;98773.00;4915910;28;105288;-56
2022/07/12 06:30:48;;;;;;;;;0.00;0.00;;;;;21.48;48.31;98769.47;4919191;28;102250;-56
2022/07/12 06:33:15;;;;;;;;;0.00;0.00;;;;;21.48;48.39;98769.47;4914202;28;104015;-56
2022/07/12 06:35:42;;;;;;;;;0.00;0.00;;;;;21.48;47.96;98764.75;4920019;28;103092;-56
2022/07/12 06:38:09;;;;;;;;;0.00;0.00;;;;;21.50;48.48;98772.75;4920955;28;102092;-56
2022/07/12 06:40:36;;;;;;;;;0.00;0.00;;;;;21.51;48.22;98771.66;4922831;28;102627;-57
2022/07/12 06:43:08;;;;;;;;;0.00;0.00;;;;;21.50;48.29;98770.00;4922622;28;104099;-56
2022/07/12 06:45:35;;;;;;;;;0.00;0.00;;;;;21.50;48.20;98764.50;4916226;28;102280;-56
2022/07/12 06:48:04;;;;;;;;;0.00;0.00;;;;;21.53;48.43;98766.72;4921351;28;102175;-56
2022/07/12 06:50:32;;;;;;;;;0.00;0.00;;;;;21.53;48.22;98766.72;4921600;28;102213;-56
2022/07/12 06:52:59;;;;;;;;;0.33;0.00;;;;;21.55;47.75;98767.28;4918046;28;103978;-56
2022/07/12 06:55:26;;;;;;;;;0.00;0.00;;;;;21.56;47.61;98763.44;4917728;28;102158;-56
2022/07/12 06:57:53;;;;;;;;;0.00;0.00;;;;;21.58;47.81;98773.06;4919793;28;102125;-56
2022/07/12 07:00:20;;;;;;;;;0.67;0.00;;;;;21.60;48.17;98770.06;4917661;28;102485;-56
2022/07/12 07:02:47;;;;;;;;;0.00;0.00;;;;;21.62;47.91;98763.19;4914397;28;103998;-56
2022/07/12 07:05:17;;;;;;;;;0.00;0.00;;;;;21.66;47.75;98768.97;4919039;28;102114;-56
2022/07/12 07:07:44;;;;;;;;;0.00;0.00;;;;;21.67;47.71;98762.38;4914498;28;102392;-56
2022/07/12 07:10:12;;;;;;;;;0.00;0.00;;;;;21.66;47.96;98771.72;4917764;28;102461;-56
2022/07/12 07:12:39;;;;;;;;;0.00;0.00;;;;;21.70;47.74;98775.63;4918158;28;104152;-57
2022/07/12 07:15:06;;;;;;;;;0.00;0.00;;;;;21.69;48.24;98771.19;4921518;28;103890;-57
2022/07/12 07:17:34;;;;;;;;;0.00;0.00;;;;;21.68;47.58;98775.88;4920810;28;102391;-56
2022/07/12 07:20:01;;;;;;;;;0.33;0.00;;;;;21.70;48.02;98773.66;4921098;28;102194;-56
2022/07/12 07:22:28;;;;;;;;;0.00;0.00;;;;;21.71;47.68;98775.31;4919072;28;104047;-56
2022/07/12 07:24:55;;;;;;;;;0.00;0.00;;;;;21.73;47.77;98775.91;4916499;28;102889;-56
2022/07/12 07:27:23;;;;;;;;;0.00;0.00;;;;;21.74;47.87;98774.81;4919625;28;102314;-56
2022/07/12 07:32:35;;;;;;;;;0.00;0.00;;;;;21.76;47.59;98777.28;4919412;28;108857;-56
2022/07/12 07:35:05;;;;;;;;;0.00;0.00;;;;;21.77;47.77;98778.94;4917326;28;102006;-56
2022/07/12 07:37:34;;;;;;;;;0.00;0.00;;;;;21.78;47.84;98780.59;4916698;28;102441;-56
2022/07/12 07:40:02;;;;;;;;;1.00;0.00;;;;;21.77;47.41;98784.44;4920970;28;102124;-56
2022/07/12 07:42:29;;;;;;;;;0.00;0.00;;;;;21.79;47.63;98777.56;4919270;28;104088;-56
2022/07/12 07:44:56;;;;;;;;;0.00;0.00;;;;;21.79;47.93;98782.25;4916238;28;102449;-56
2022/07/12 07:47:48;;;;;;;;;0.00;0.00;;;;;21.80;47.65;98783.91;4913145;28;102167;-56
2022/07/12 07:50:35;;;;;;;;;0.00;0.00;;;;;21.83;47.78;98790.81;4920411;28;103108;-56
2022/07/12 07:53:02;;;;;;;;;0.00;0.00;;;;;21.80;47.57;98792.97;4917048;28;108704;-56
2022/07/12 07:55:29;;;;;;;;;0.00;0.00;;;;;21.82;47.54;98787.22;4915753;28;102284;-56
2022/07/12 07:57:59;;;;;;;;;0.00;0.00;;;;;21.83;47.43;98793.56;4915076;28;102707;-56
2022/07/12 08:00:27;;;;;;;;;0.00;0.00;;;;;21.83;47.36;98788.88;4915061;28;102176;-56
2022/07/12 08:02:57;;;;;;;;;0.00;0.00;;;;;21.84;47.34;98790.50;4916955;28;104167;-56
2022/07/12 08:05:24;;;;;;;;;0.00;0.00;;;;;21.80;47.61;98778.38;4915480;28;102219;-56
2022/07/12 08:07:55;;;;;;;;;0.00;0.00;;;;;21.83;47.63;98779.78;4915822;28;102258;-56
2022/07/12 08:10:22;;;;;;;;;0.00;0.00;;;;;21.84;47.37;98789.72;4914634;28;102110;-56
2022/07/12 08:12:49;;;;;;;;;0.00;0.00;;;;;21.84;47.82;98778.69;4917502;28;104120;-56
2022/07/12 08:15:16;;;;;;;;;0.00;0.00;;;;;21.83;47.81;98782.53;4919399;28;105658;-56
2022/07/12 08:17:43;;;;;;;;;0.00;0.00;;;;;21.80;47.49;98781.13;4917461;28;102432;-56
2022/07/12 08:20:19;;;;;;;;;0.00;0.00;;;;;21.78;47.93;98772.34;4916946;28;102203;-56
2022/07/12 08:23:06;;;;;;;;;0.00;0.00;;;;;21.76;47.97;98780.84;4911306;28;110099;-56
2022/07/12 08:25:33;;;;;;;;;0.33;0.00;;;;;21.78;47.54;98778.69;4914856;28;102313;-56
2022/07/12 08:28:00;;;;;;;;;0.00;0.00;;;;;21.74;47.57;98783.06;4912089;28;101975;-56
2022/07/12 08:30:27;;;;;;;;;0.00;0.00;;;;;21.74;47.69;98773.97;4915276;28;105476;-56
2022/07/12 08:32:57;;;;;;;;;0.00;0.00;;;;;21.77;47.65;98778.94;4913981;28;104200;-56
2022/07/12 08:35:24;;;;;;;;;0.00;0.00;;;;;21.79;47.61;98787.78;4913618;28;102252;-56
2022/07/12 08:37:51;;;;;;;;;0.00;0.00;;;;;21.79;47.82;98794.06;4915763;28;102110;-56
2022/07/12 08:40:19;;;;;;;;;0.00;0.00;;;;;21.80;47.73;98806.75;4915993;28;102393;-56
2022/07/12 08:42:47;;;;;;;;;0.00;0.00;;;;;21.80;47.91;98801.25;4912738;28;104114;-56
2022/07/12 08:45:15;;;;;;;;;0.00;0.00;;;;;21.82;47.40;98806.50;4912072;28;102197;-56
2022/07/12 08:47:42;;;;;;;;;0.00;0.00;;;;;21.83;47.93;98813.66;4915388;28;102500;-56
2022/07/12 08:50:11;;;;;;;;;0.00;0.00;;;;;21.85;47.86;98813.38;4916385;28;102627;-56
2022/07/12 08:52:40;;;;;;;;;0.00;0.00;;;;;21.84;47.52;98820.00;4914297;28;104100;-56
2022/07/12 08:55:28;;;;;;;;;0.00;0.00;;;;;21.84;47.69;98815.28;4909378;28;102190;-57
2022/07/12 08:57:57;;;;;;;;;0.00;0.00;;;;;21.85;47.63;98807.88;4915157;28;102538;-56
2022/07/12 09:00:25;;;;;;;;;0.00;0.00;;;;;21.83;47.40;98812.81;4916828;28;102184;-56
2022/07/12 09:02:56;;;;;;;;;0.00;0.00;;;;;21.85;47.61;98811.44;4911594;28;104193;-56
2022/07/12 09:05:24;;;;;;;;;0.00;0.00;;;;;21.86;47.81;98806.78;4911894;28;102119;-56
2022/07/12 09:07:52;;;;;;;;;0.00;0.00;;;;;21.87;47.64;98813.94;4914200;28;102168;-56
2022/07/12 09:10:19;;;;;;;;;0.00;0.00;;;;;21.86;47.72;98804.84;4910890;28;102469;-56
2022/07/12 09:12:46;;;;;;;;;0.00;0.00;;;;;21.87;47.43;98805.69;4913088;28;104229;-56
2022/07/12 09:15:21;;;;;;;;;0.00;0.00;;;;;21.86;47.39;98799.34;4898370;28;102403;-56
2022/07/12 09:17:48;;;;;;;;;0.00;0.00;;;;;21.85;47.71;98808.69;4912435;28;102002;-56
2022/07/12 09:20:16;;;;;;;;;0.00;0.00;;;;;21.82;47.80;98809.25;4916804;28;103089;-56
2022/07/12 09:22:51;;;;;;;;;0.00;0.00;;;;;21.81;47.72;98813.91;4936887;28;104069;-56
2022/07/12 09:25:18;;;;;;;;;0.00;0.00;;;;;21.79;47.79;98816.09;4913533;28;102512;-56
2022/07/12 09:27:51;;;;;;;;;0.00;0.00;;;;;21.80;47.79;98825.19;4915457;28;102272;-56
2022/07/12 09:30:20;;;;;;;;;0.00;0.00;;;;;21.80;47.84;98826.03;4906713;28;102257;-56
2022/07/12 09:36:06;;;;;;;;;0.00;0.00;;;;;21.80;47.73;98838.94;4913109;28;102278;-56
2022/07/12 09:38:37;;;;;;;;;0.00;0.00;;;;;21.82;47.73;98820.25;4917474;28;102686;-55
2022/07/12 09:41:05;;;;;;;;;0.00;0.00;;;;;21.84;47.42;98811.75;4918053;28;102608;-56
2022/07/12 09:43:32;;;;;;;;;1.00;0.00;;;;;21.85;47.44;98797.69;4916973;28;104104;-56
2022/07/12 09:46:00;;;;;;;;;0.00;0.00;;;;;21.85;47.44;98803.19;4910456;28;102365;-57
2022/07/12 09:48:30;;;;;;;;;0.00;0.00;;;;;21.84;47.69;98801.53;4913635;28;102218;-56
2022/07/12 09:50:57;;;;;;;;;0.00;0.00;;;;;21.84;47.18;98806.22;4912242;28;102693;-56
2022/07/12 09:53:33;;;;;;;;;0.00;0.00;;;;;21.84;47.79;98785.00;4916863;28;104148;-56
2022/07/12 09:56:05;;;;;;;;;0.00;0.00;;;;;21.85;47.90;98794.94;4902562;28;102496;-56
2022/07/12 09:58:57;;;;;;;;;0.00;0.00;;;;;21.84;47.54;98807.03;4910158;28;102214;-56
2022/07/12 10:01:24;;;;;;;;;0.00;0.00;;;;;21.82;47.71;98814.75;4911997;28;102197;-56
2022/07/12 10:03:52;;;;;;;;;0.00;0.00;;;;;21.80;47.96;98819.69;4916738;28;104460;-55
2022/07/12 10:06:27;;;;;;;;;0.00;0.00;;;;;21.82;47.30;98809.25;4916020;28;102443;-56
2022/07/12 10:09:00;;;;;;;;;0.00;0.00;;;;;21.78;47.84;98805.38;4912582;28;103327;-56
2022/07/12 10:11:27;;;;;;;;;0.00;0.00;;;;;21.84;47.50;98803.47;4912887;28;102580;-56
2022/07/12 10:14:15;;;;;;;;;0.00;0.00;;;;;21.86;47.35;98801.28;4914416;28;109861;-56
2022/07/12 10:16:44;;;;;;;;;0.00;0.00;;;;;21.85;47.84;98814.19;4937803;28;102246;-56
2022/07/12 10:19:23;;;;;;;;;0.00;0.00;;;;;21.85;47.29;98818.88;4916168;28;102393;-56
2022/07/12 10:21:51;;;;;;;;;0.00;0.00;;;;;21.84;47.87;98818.03;4915969;28;102625;-56
2022/07/12 10:24:30;;;;;;;;;0.00;0.00;;;;;21.88;47.76;98816.44;4913036;28;104252;-56
2022/07/12 10:27:19;;;;;;;;;0.00;0.00;;;;;21.88;47.42;98810.94;4917929;28;102170;-56
2022/07/12 10:29:48;;;;;;;;;0.00;0.00;;;;;21.89;47.82;98815.31;4906765;28;102470;-56
2022/07/12 10:32:34;;;;;;;;;0.00;0.00;;;;;21.90;47.65;98816.16;4911260;28;102203;-56
2022/07/12 10:35:01;;;;;;;;;0.00;0.00;;;;;21.90;47.48;98810.63;4913215;28;103999;-56
2022/07/12 10:37:29;;;;;;;;;0.00;0.00;;;;;21.87;48.03;98795.50;4907223;28;104842;-56
2022/07/12 10:40:15;;;;;;;;;0.00;0.00;;;;;21.91;47.59;98804.03;4917172;28;102239;-56
2022/07/12 10:43:00;;;;;;;;;0.00;0.00;;;;;21.88;47.67;98801.84;4911980;28;102289;-56
2022/07/12 10:45:40;;;;;;;;;0.00;0.00;;;;;21.88;47.54;98786.16;4915902;28;104072;-56
2022/07/12 10:48:18;;;;;;;;;0.00;0.00;;;;;21.90;47.38;98792.19;4913027;28;102385;-56
2022/07/12 10:50:45;;;;;;;;;0.00;0.00;;;;;21.90;47.25;98786.69;4907651;28;102122;-56
2022/07/12 10:53:18;;;;;;;;;0.00;0.00;;;;;21.90;47.71;98786.69;4910024;28;102640;-56
2022/07/12 10:56:06;;;;;;;;;0.00;0.00;;;;;21.92;47.32;98781.75;4896090;28;103978;-56
2022/07/12 10:58:34;;;;;;;;;0.00;0.00;;;;;21.92;47.28;98787.25;4908823;28;102234;-56
2022/07/12 11:01:06;;;;;;;;;0.00;0.00;;;;;21.93;47.63;98785.38;4912300;28;102092;-56
2022/07/12 11:03:45;;;;;;;;;0.00;0.00;;;;;21.93;47.68;98790.88;4915446;28;102185;-56
2022/07/12 11:06:14;;;;;;;;;0.00;0.00;;;;;21.93;47.21;98775.16;4909974;28;108904;-56
2022/07/12 11:09:01;;;;;;;;;0.00;0.00;;;;;21.94;47.50;98774.06;4918124;28;102565;-56
2022/07/12 11:11:32;;;;;;;;;0.00;0.00;;;;;21.95;47.77;98764.72;4916019;28;102365;-56
2022/07/12 11:14:00;;;;;;;;;0.00;0.00;;;;;21.94;47.55;98757.56;4918963;28;102221;-56
2022/07/12 11:16:29;;;;;;;;;0.00;0.00;;;;;21.93;47.27;98749.59;4912183;28;104053;-56
2022/07/12 11:18:57;;;;;;;;;0.00;0.00;;;;;21.96;47.42;98747.09;4908968;28;102360;-56
2022/07/12 11:21:24;;;;;;;;;0.00;0.00;;;;;21.98;47.27;98744.91;4919784;28;104699;-56
2022/07/12 11:23:51;;;;;;;;;0.00;0.00;;;;;21.99;47.26;98745.72;4920038;28;102304;-56
2022/07/12 11:26:19;;;;;;;;;0.00;0.00;;;;;22.00;47.65;98741.88;4902004;28;104059;-56
2022/07/12 11:28:48;;;;;;;;;0.00;0.00;;;;;22.01;47.35;98736.09;4942137;28;102220;-56
2022/07/12 11:31:17;;;;;;;;;0.00;0.00;;;;;22.00;47.31;98737.19;4920426;28;102209;-56
2022/07/12 11:33:46;;;;;;;;;0.00;0.00;;;;;22.02;47.22;98732.22;4915182;28;102062;-56
2022/07/12 11:36:13;;;;;;;;;0.00;0.00;;;;;22.01;47.29;98741.63;4911946;28;104101;-56
2022/07/12 11:38:42;;;;;;;;;0.00;0.00;;;;;22.02;47.33;98759.78;4915805;28;102448;-56
2022/07/12 11:41:11;;;;;;;;;0.00;0.00;;;;;22.02;47.60;98746.00;4917769;28;101980;-57
2022/07/12 11:43:39;;;;;;;;;0.00;0.00;;;;;22.02;47.27;98743.25;4920990;28;102663;-55